Timeline UpdatesTrip UpdatesNews PostsPvt Posts♥♥Travel TipsAdmin PostsConv PostsFollowed PostsChat RequestsBlog PostsPNR Posts

Disclaimer
Search
 
 
Sun Nov 23, 2014 15:15:21 ISTHomeTrainsΣChainsAtlasPNRForumGalleryNewsFAQTripsMembersLoginFeedback
No Recent News for this Train
Other Trains in the News **new
Latest...
A1 and S4 coach are not being detached at Surat. Passengers of S4 travelling towards Nandurbar need to disembark and board earmarked coach in 59075 Bhusaval Passenger from Platform 4.
Sun Feb 17, 2013 (02:49PM)
⇐ Return Journey: Train# 59442

59441/Mumbai Central-Ahmedabad Passenger

Time-Table HAS CHANGED.
Sep 04 2014 (10:15PM)
Change Departure Station:
Change Arrival Station:
Post a Train Travel TipPost a Train Travel Tip **new
Post a Comment/Question/Picture/VideoPost a Comment/Question/Picture/Video
Pantry/Catering
✕ NO Pantry Car
✕ NO Catering
RSA - Rake Sharing
59439/59440 and 59441/59442; Both Mumbai Central Ahmedabad Passengers Share rakes
Rake/Coach Composition
LOCO-SLR-A1-S4-RMS-RMS-S3-S2-S1-GEN-GEN-GEN-GEN-GEN-GEN-LD(As on 1 April); 1 AC 2-tier coach (upto Surat), 3 Sleeper coaches upto Ahmedabad (S1, S2, S3), S4 coach is for Nandurbar and is detached at Surat.
Loco
BL WCAM-1
News    PNR    Forum    Time-Table    Availability    Fare Chart    Map    Arr/Dep History    Trips    Gallery    ΣChains    X/O    Timeline    
Travel Time: 9h 48m    48 halts    Distance: 268 km    Avg Speed: 27 km/hr
Type: Passenger
Zone: WR/Western
Departs @ 04:57 (Avg 5m late)
Platform# ???
SMTWTFS
Vedchha/VDH 
Arrives @ 14:45 (Avg 2m late)
Platform# 1
SMTWTFS
Ahmedabad Junction/ADI 

48 halts. 54 intermediate Stations between Vedchha and Ahmedabad Junction

Show ALL intermediate Stations  Show Old Time-Table

#TrkCodeStation NameX/OArrivesAvgDepartsAvgHaltPFDay#KmSpeedElevZoneAddress
1/==/BCTMumbai Central (9)  -22:40+041-225.1323mWRMumbai 400008, Maharashtra
2/==/DDRMumbai Dadar Western (6)  22:48 22:51+222:53+45 2m51-219.1416mWRMumbai, Maharashtra
3/==/BVIMumbai Borivali (8)  23:25 23:28+223:30+35 2m41-195.43919mWRMumbai - 400092, Maharashtra
4/==/BYRBhayandar (6)  23:44+323:46+52m51-186.4346mWRThane, Maharashtra
5/==/BSRVasai Road (7)XO  23:52 00:01+200:01 00:13+49 12m42-178.0397mWRVasai 401202, Maharashtra
6/==/VRVirar (8)  00:26+700:28+92m--2-169.6586mWRDist. Palghar, Maharashtra
7/==/SAHSaphale (2)  00:46 00:45+1800:47+171 2m12-153.2648mWRDist. Palghar, Maharashtra
8/==/KLVKelve Road (3)O  00:50 00:53+1900:55+285 2m--2-146.82810mWRDist. Palghar, Maharashtra
9/==/PLGPalghar (3)O  01:05 01:13+2101:15+2510 2m--2-138.43419mWRPalghar, Maharashtra
10/==/BORBoisar (3)X  01:35+1401:37+142m22-127.16317mWRBoisar Tel.no-02525-266626, Maharashtra
11/==/VGNVangaon (3)X  01:47 01:46+1601:48+161 2m--2-117.75311mWRDist. Palghar, Maharashtra
12/==/DRDDahanu Road (5)XO  02:02+1402:04+142m--2-105.46712mWRDahanu, Maharashtra
13/==/GVDGholvad (4)X  02:15 02:14+1402:16+131 2m--2-94.36114mWRGholvad, Maharashtra
14/==/UBRUmbargam Road (3)XO  02:26 02:25+1302:27+161 2m--2-85.12330mWRUmbergaon, Gujarat
15/==/SJNSanjan (3)X  02:42 02:41+1002:43+131 2m--2-79.85822mWRSanjan, Gujarat
16/==/BLDBhilad (3)X  02:56 02:55+1302:57+121 2m--2-68.25833mWRBhilad, Gujarat
17/==/KEBKarambeli (2)  03:02+003:04+02m--2-63.46429mWRNational Highway 8, Gujarat
18/==/VAPIVapi (3)X  03:10+903:12+92m--2-56.96427mWRVapi, Gujarat
19/==/UVDUdvada (3)X  03:22 03:21+1403:23+131 2m--2-47.36018mWRUdvada, Gujarat
20/==/PADPardi (3)X  03:30 03:29+1403:31+151 2m--2-41.32719mWRValsad, Gujarat
21/==/BLValsad (3)X  03:45 03:55+503:55 04:15+310 20m12-30.76715mWRValsad, Gujarat
22/==/DGIDungri (3)X  04:24 04:23+504:25+51 2m--2-21.86820mWRNH 8, Gujarat
23/==/BIMBilimora Junction (4)  04:33+704:35+62m--2-12.75611mWRBilimora, Gujarat
24/==/AMLAmalsad (3)X  04:41+804:43+72m--2-7.24612mWRAmalsad, Gujarat
25/==/ACLAncheli (2)  04:49 04:48-04:50-1 2m--2-3.44020mWRNavsari, Gujarat
26/==/VDHVedchha (3)»  04:55+604:57+52m--20.06313mWRNavsari, Gujarat
27/==/NVSNavsari (3)X  05:04 05:05+505:07+63 2m--28.45614mWRNavsari, Gujarat
28/==/MRLMaroli (3)X  05:16+605:18+62m--216.95715mWRMaroli, Gujarat
29/==/SCHSachin (3)X  05:26 05:25+605:27+51 2m1223.56811mWRKansad Road Sachin, Gujarat
30/==/BHETBhestan (2)X  05:32+705:34+62m1229.24113mWRSurat, Gujarat
31/==/UDNUdhna Junction (3)X  05:41+705:43+72m1234.01116mWRUdhna 394210, Gujarat
32/==/STSurat (4)X  06:05+006:45+040m3238.03919mWRSurat 395001, Gujarat
33/==/URNUtran (3)X  06:53 06:51+1806:54 06:53+171 2m--241.96415mWRSurat, Gujarat
34/==/KSEKosad (2)  06:58 06:56+2006:59 06:58+191 2m--245.17317mWRSurat, Gujarat
35/==/GTXGothangam (2)X  07:03 07:01+2107:04 07:03+201 2m--248.84419mWRAmroli Sayan Rd, Gujarat
36/==/SYNSayan (3)X  07:09 07:07+2107:10 07:09+201 2m--251.78621mWRSayan Satellite town, Gujarat
37/==/KDSDKudsad (2)  07:16 07:14-07:18 07:16-2m--258.94218mWRNH 8, Gujarat
38/==/KIMKim (2)X  07:22 07:20+2107:24 07:22+212m--261.75818mWRNH 8, Gujarat
39/==/KSBKosamba Junction (3)  07:32 07:30+2007:34 07:32+202m--269.45230mWRKosamba, Gujarat
40/==/HATHathuran (2)X  07:39 07:37-07:41 07:39-2m--273.84632mWRKosamba, Gujarat
41/==/PAOPanoli (3)XO  07:46 07:44+1907:50 07:46+194 2m--277.73229mWRPanoli, Gujarat
42/==/SNJLSanjali (2)X  07:56 07:54-07:58 07:56-2m1281.97323mWRSanjali, Gujarat
43/==/AKVAnkleshwar Junction (4)X  08:03 08:01+1108:05 08:03+112m1288.03719mWRAnkleshwar, Gujarat
44/==/BHBharuch Junction (5)X  08:18+1208:23+115m1297.36019mWRBharuch, Gujarat
45/==/CVJChavaj (2)X  08:30 08:28+1908:32 08:30+182m--2102.36120mWRBharuch, Gujarat
46/==/NIUNabipur (3)X  08:39 08:37+1608:41 08:39+162m--2109.45824mWRNabipur, Gujarat
47/==/VREVarediya (4)X  08:48 08:46+1708:50 08:48+162m--2116.15721mWRNH 8, Gujarat
48/==/PLJPalej (4)X  08:57 08:55+1408:59 08:57+142m--2122.76229mWRPalej, Gujarat
49/==/LKDLakodara (4)X  09:06 09:04+1509:08 09:06+152m--2130.06026mWRNH 8, Gujarat
50/==/MYGMiyagam Karjan (2)X  09:16 09:14+1509:18 09:16+152m22138.05829mWRKarjan, Gujarat
51/==/KSPRKashipura Sarar (2)  09:26 09:24+1609:28 09:26+162m--2145.83826mWRGIDC Industrial Area, Gujarat
52/==/ITAItola (4)  09:33 09:32+1609:35 09:34+162m--2149.63427mWRNational Highway 8 Vadodara, Gujarat
53/==/VRMVarnama (2)  09:40 09:41+1209:42 09:43+122m--2153.55628mWRVadodara, Gujarat
54/==/MPRMakarpura (4)X  09:48 09:49+1509:50 09:51+152m--2159.15730mWRVadodara, Gujarat
55/==/VSVishvamitri Junction (4)O  09:56 09:57+1609:58 09:59+162m--2164.81130mWRVadodara, Gujarat
56/==/BRCVadodara Junction (7)  10:12 10:15+710:32 10:35+920m42167.82936mWRVadodara 390005, Gujarat
57/==/BJWBajva (3)X  10:49 10:50+3710:50 10:52+391 2m--2175.12338mWRVadodara, Gujarat
58/==/RNORanoli (2)X  11:01 11:02+3911:03 11:04+402m--2178.95039mWRVadodara District, Gujarat
59/==/NDRNandesari (2)X  11:08 11:09-11:10 11:11-2m--2183.05042mWRNandesari, Gujarat
60/==/VDAVasad Junction (3)XO  11:16 11:17+2911:23 11:19+307 2m--2188.02140mWRVasad, Gujarat
61/==/ADDAdas Road (4)X  11:31 11:32+3211:33 11:34+332m--2192.73542mWRNational Highway 8, Gujarat
62/==/VXDVadod (3)XO  11:40 11:41+3311:48 11:43+348 2m--2196.72044mWRAnand District, Gujarat
63/==/ANNDAnand Junction (6)X  12:03 12:04+2312:08 12:09+225m22203.65644mWRAnand, Gujarat
64/--/KBRVKanjari Boriyavi Junction (4)X  12:16 12:17+2812:18 12:19+282m--2211.03339mWRKanjari, Gujarat
65/==/UTDUtarsanda (4)  12:27 12:29+2312:28 12:30+231m--2216.52440mWRUttarsanda, Gujarat
66/==/NDNadiad Junction (4)  12:41 12:44+2112:46 12:49+195m22222.07937mWRNadiad, Gujarat
67/==/GTEGothaj (2)  12:55 12:56+1912:57 12:58+212m--2231.33332mWRState Highway 3, Gujarat
68/==/MHDMahemdavad Kheda Road (4)O  13:12 13:13+1613:18 13:15+196 2m--2239.62537mWRMahemdavad, Gujarat
69/==/NEPNenpur (2)XO  13:24 13:25-13:26 13:27-2m--2243.72935mWRState Highway 3, Gujarat
70/==/KANJKanij (3)  13:32 13:33+1413:34 13:35+142m--2246.63339mWRBareja-Barejadi Rd, Gujarat
71/==/BJDBarejadi Nandej (3)O  13:41 13:43+1413:46 13:44+155 1m--2251.01142mWRBareja-Barejadi Rd, Gujarat
72/==/GERGeratpur (2)X  14:05 14:03+714:06 14:05+71 2m--2254.34044mWRAhmadabad, Gujarat
73/==/VTAVatva (4)X  14:15 14:13+3014:16 14:15+161 2m--2259.65849mWRDist. Ahmedabad 382445, Gujarat
74/==/MANManinagar (2)  14:22 14:20+414:24 14:22+42m12264.4850mWRAhmadabad, Gujarat
75/==/ADIAhmedabad Junction (12)•  14:45+2-12267.6-51mWRAhmedabad, Gujarat
Scroll to Top
Scroll to Bottom